sensor_id;sensor_type;location;lat;lon;timestamp;temperature;humidity
6252;DHT22;3159;52.414;9.784;2023-12-20T00:01:00;8.00;99.90
6252;DHT22;3159;52.414;9.784;2023-12-20T00:03:26;8.00;99.90
6252;DHT22;3159;52.414;9.784;2023-12-20T00:05:53;8.00;99.90
6252;DHT22;3159;52.414;9.784;2023-12-20T00:08:21;7.90;99.90
6252;DHT22;3159;52.414;9.784;2023-12-20T00:10:48;8.00;99.90
6252;DHT22;3159;52.414;9.784;2023-12-20T00:13:16;8.00;99.90
6252;DHT22;3159;52.414;9.784;2023-12-20T00:15:42;8.00;99.90
6252;DHT22;3159;52.414;9.784;2023-12-20T00:18:09;8.00;99.90
6252;DHT22;3159;52.414;9.784;2023-12-20T00:20:36;7.90;99.90
6252;DHT22;3159;52.414;9.784;2023-12-20T00:23:03;7.90;99.90
6252;DHT22;3159;52.414;9.784;2023-12-20T00:25:30;7.90;99.90
6252;DHT22;3159;52.414;9.784;2023-12-20T00:27:57;8.00;99.90
6252;DHT22;3159;52.414;9.784;2023-12-20T00:30:25;7.90;99.90
6252;DHT22;3159;52.414;9.784;2023-12-20T00:32:52;7.80;99.90
6252;DHT22;3159;52.414;9.784;2023-12-20T00:35:19;7.70;99.90
6252;DHT22;3159;52.414;9.784;2023-12-20T00:37:45;7.80;99.90
6252;DHT22;3159;52.414;9.784;2023-12-20T00:40:12;7.80;99.90
6252;DHT22;3159;52.414;9.784;2023-12-20T00:42:39;7.70;99.90
6252;DHT22;3159;52.414;9.784;2023-12-20T00:45:06;7.80;99.90
6252;DHT22;3159;52.414;9.784;2023-12-20T00:47:35;7.70;99.90
6252;DHT22;3159;52.414;9.784;2023-12-20T00:50:02;7.70;99.90
6252;DHT22;3159;52.414;9.784;2023-12-20T00:52:28;7.60;99.90
6252;DHT22;3159;52.414;9.784;2023-12-20T00:54:55;7.60;99.90
6252;DHT22;3159;52.414;9.784;2023-12-20T00:57:22;7.50;99.90
6252;DHT22;3159;52.414;9.784;2023-12-20T00:59:49;7.50;99.90
6252;DHT22;3159;52.414;9.784;2023-12-20T01:02:15;7.50;99.90
6252;DHT22;3159;52.414;9.784;2023-12-20T01:04:44;7.50;99.90
6252;DHT22;3159;52.414;9.784;2023-12-20T01:07:10;7.60;99.90
6252;DHT22;3159;52.414;9.784;2023-12-20T01:09:38;7.60;99.90
6252;DHT22;3159;52.414;9.784;2023-12-20T01:12:05;7.40;99.90
6252;DHT22;3159;52.414;9.784;2023-12-20T01:14:32;7.40;99.90
6252;DHT22;3159;52.414;9.784;2023-12-20T01:16:59;7.40;99.90
6252;DHT22;3159;52.414;9.784;2023-12-20T01:19:26;7.30;99.90
6252;DHT22;3159;52.414;9.784;2023-12-20T01:21:56;7.40;99.90
6252;DHT22;3159;52.414;9.784;2023-12-20T01:24:22;7.40;99.90
6252;DHT22;3159;52.414;9.784;2023-12-20T01:26:49;7.30;99.90
6252;DHT22;3159;52.414;9.784;2023-12-20T01:29:16;7.30;99.90
6252;DHT22;3159;52.414;9.784;2023-12-20T01:31:43;7.20;99.90
6252;DHT22;3159;52.414;9.784;2023-12-20T01:34:10;7.30;99.90
6252;DHT22;3159;52.414;9.784;2023-12-20T01:36:36;7.20;99.90
6252;DHT22;3159;52.414;9.784;2023-12-20T01:39:04;7.20;99.90
6252;DHT22;3159;52.414;9.784;2023-12-20T01:41:31;7.20;99.90
6252;DHT22;3159;52.414;9.784;2023-12-20T01:43:58;7.30;99.90
6252;DHT22;3159;52.414;9.784;2023-12-20T01:46:25;7.20;99.90
6252;DHT22;3159;52.414;9.784;2023-12-20T01:48:53;7.30;99.90
6252;DHT22;3159;52.414;9.784;2023-12-20T01:51:21;7.30;99.90
6252;DHT22;3159;52.414;9.784;2023-12-20T01:53:48;7.30;99.90
6252;DHT22;3159;52.414;9.784;2023-12-20T01:56:17;7.20;99.90
6252;DHT22;3159;52.414;9.784;2023-12-20T01:58:45;7.00;99.90
6252;DHT22;3159;52.414;9.784;2023-12-20T02:01:13;7.10;99.90
6252;DHT22;3159;52.414;9.784;2023-12-20T02:03:40;7.10;99.90
6252;DHT22;3159;52.414;9.784;2023-12-20T02:06:08;7.10;99.90
6252;DHT22;3159;52.414;9.784;2023-12-20T02:08:35;7.10;99.90
6252;DHT22;3159;52.414;9.784;2023-12-20T02:11:03;7.10;99.90
6252;DHT22;3159;52.414;9.784;2023-12-20T02:13:31;7.10;99.90
6252;DHT22;3159;52.414;9.784;2023-12-20T02:15:58;7.00;99.90
6252;DHT22;3159;52.414;9.784;2023-12-20T02:18:25;7.00;99.90
6252;DHT22;3159;52.414;9.784;2023-12-20T02:20:52;7.00;99.90
6252;DHT22;3159;52.414;9.784;2023-12-20T02:23:20;7.00;99.90
6252;DHT22;3159;52.414;9.784;2023-12-20T02:25:47;6.90;99.90
6252;DHT22;3159;52.414;9.784;2023-12-20T02:28:14;6.90;99.90
6252;DHT22;3159;52.414;9.784;2023-12-20T02:30:41;7.10;99.90
6252;DHT22;3159;52.414;9.784;2023-12-20T02:33:10;7.00;99.90
6252;DHT22;3159;52.414;9.784;2023-12-20T02:35:38;6.90;99.90
6252;DHT22;3159;52.414;9.784;2023-12-20T02:38:05;6.90;99.90
6252;DHT22;3159;52.414;9.784;2023-12-20T02:40:33;6.80;99.90
6252;DHT22;3159;52.414;9.784;2023-12-20T02:43:00;6.80;99.90
6252;DHT22;3159;52.414;9.784;2023-12-20T02:45:27;6.80;99.90
6252;DHT22;3159;52.414;9.784;2023-12-20T02:47:53;6.70;99.90
6252;DHT22;3159;52.414;9.784;2023-12-20T02:50:20;6.70;99.90
6252;DHT22;3159;52.414;9.784;2023-12-20T02:52:47;6.70;99.90
6252;DHT22;3159;52.414;9.784;2023-12-20T02:55:14;6.70;99.90
6252;DHT22;3159;52.414;9.784;2023-12-20T02:57:42;6.70;99.90
6252;DHT22;3159;52.414;9.784;2023-12-20T03:00:10;6.70;99.90
6252;DHT22;3159;52.414;9.784;2023-12-20T03:02:37;6.60;99.90
6252;DHT22;3159;52.414;9.784;2023-12-20T03:05:04;6.60;99.90
6252;DHT22;3159;52.414;9.784;2023-12-20T03:07:31;6.60;99.90
6252;DHT22;3159;52.414;9.784;2023-12-20T03:09:58;6.50;99.90
6252;DHT22;3159;52.414;9.784;2023-12-20T03:12:24;6.50;99.90
6252;DHT22;3159;52.414;9.784;2023-12-20T03:14:52;6.50;99.90
6252;DHT22;3159;52.414;9.784;2023-12-20T03:17:19;6.40;99.90
6252;DHT22;3159;52.414;9.784;2023-12-20T03:19:46;6.50;99.90
6252;DHT22;3159;52.414;9.784;2023-12-20T03:22:13;6.40;99.90
6252;DHT22;3159;52.414;9.784;2023-12-20T03:24:40;6.40;99.90
6252;DHT22;3159;52.414;9.784;2023-12-20T03:27:06;6.40;99.90
6252;DHT22;3159;52.414;9.784;2023-12-20T03:29:33;6.40;99.90
6252;DHT22;3159;52.414;9.784;2023-12-20T03:32:01;6.40;99.90
6252;DHT22;3159;52.414;9.784;2023-12-20T03:34:28;6.50;99.90
6252;DHT22;3159;52.414;9.784;2023-12-20T03:36:55;6.50;99.90
6252;DHT22;3159;52.414;9.784;2023-12-20T03:39:22;6.40;99.90
6252;DHT22;3159;52.414;9.784;2023-12-20T03:41:49;6.40;99.90
6252;DHT22;3159;52.414;9.784;2023-12-20T03:44:15;6.30;99.90
6252;DHT22;3159;52.414;9.784;2023-12-20T03:46:42;6.30;99.90
6252;DHT22;3159;52.414;9.784;2023-12-20T03:49:12;6.30;99.90
6252;DHT22;3159;52.414;9.784;2023-12-20T03:51:39;6.40;99.90
6252;DHT22;3159;52.414;9.784;2023-12-20T03:54:07;6.30;99.90
6252;DHT22;3159;52.414;9.784;2023-12-20T03:56:34;6.30;99.90
6252;DHT22;3159;52.414;9.784;2023-12-20T03:59:01;6.30;99.90
6252;DHT22;3159;52.414;9.784;2023-12-20T04:01:27;6.30;99.90
6252;DHT22;3159;52.414;9.784;2023-12-20T04:03:54;6.30;99.90
6252;DHT22;3159;52.414;9.784;2023-12-20T04:06:22;6.30;99.90
6252;DHT22;3159;52.414;9.784;2023-12-20T04:08:49;6.20;99.90
6252;DHT22;3159;52.414;9.784;2023-12-20T04:11:16;6.30;99.90
6252;DHT22;3159;52.414;9.784;2023-12-20T04:13:42;6.30;99.90
6252;DHT22;3159;52.414;9.784;2023-12-20T04:16:09;6.20;99.90
6252;DHT22;3159;52.414;9.784;2023-12-20T04:18:36;6.20;99.90
6252;DHT22;3159;52.414;9.784;2023-12-20T04:21:03;6.30;99.90
6252;DHT22;3159;52.414;9.784;2023-12-20T04:23:31;6.30;99.90
6252;DHT22;3159;52.414;9.784;2023-12-20T04:25:58;6.20;99.90
6252;DHT22;3159;52.414;9.784;2023-12-20T04:28:25;6.20;99.90
6252;DHT22;3159;52.414;9.784;2023-12-20T04:30:52;6.30;99.90
6252;DHT22;3159;52.414;9.784;2023-12-20T04:33:18;6.30;99.90
6252;DHT22;3159;52.414;9.784;2023-12-20T04:35:45;6.30;99.90
6252;DHT22;3159;52.414;9.784;2023-12-20T04:38:12;6.20;99.90
6252;DHT22;3159;52.414;9.784;2023-12-20T04:40:40;6.20;99.90
6252;DHT22;3159;52.414;9.784;2023-12-20T04:43:07;6.20;99.90
6252;DHT22;3159;52.414;9.784;2023-12-20T04:45:34;6.30;99.90
6252;DHT22;3159;52.414;9.784;2023-12-20T04:48:01;6.30;99.90
6252;DHT22;3159;52.414;9.784;2023-12-20T04:50:28;6.30;99.90
6252;DHT22;3159;52.414;9.784;2023-12-20T04:52:55;6.30;99.90
6252;DHT22;3159;52.414;9.784;2023-12-20T04:55:22;6.30;99.90
6252;DHT22;3159;52.414;9.784;2023-12-20T04:57:50;6.20;99.90
6252;DHT22;3159;52.414;9.784;2023-12-20T05:00:17;6.30;99.90
6252;DHT22;3159;52.414;9.784;2023-12-20T05:02:44;6.30;99.90
6252;DHT22;3159;52.414;9.784;2023-12-20T05:05:10;6.20;99.90
6252;DHT22;3159;52.414;9.784;2023-12-20T05:07:38;6.20;99.90
6252;DHT22;3159;52.414;9.784;2023-12-20T05:10:05;6.30;99.90
6252;DHT22;3159;52.414;9.784;2023-12-20T05:12:33;6.30;99.90
6252;DHT22;3159;52.414;9.784;2023-12-20T05:15:02;6.30;99.90
6252;DHT22;3159;52.414;9.784;2023-12-20T05:17:28;6.30;99.90
6252;DHT22;3159;52.414;9.784;2023-12-20T05:19:55;6.30;99.90
6252;DHT22;3159;52.414;9.784;2023-12-20T05:22:22;6.40;99.90
6252;DHT22;3159;52.414;9.784;2023-12-20T05:24:49;6.40;99.90
6252;DHT22;3159;52.414;9.784;2023-12-20T05:27:15;6.40;99.90
6252;DHT22;3159;52.414;9.784;2023-12-20T05:29:42;6.40;99.90
6252;DHT22;3159;52.414;9.784;2023-12-20T05:32:10;6.40;99.90
6252;DHT22;3159;52.414;9.784;2023-12-20T05:34:37;6.40;99.90
6252;DHT22;3159;52.414;9.784;2023-12-20T05:37:04;6.50;99.90
6252;DHT22;3159;52.414;9.784;2023-12-20T05:39:31;6.50;99.90
6252;DHT22;3159;52.414;9.784;2023-12-20T05:41:57;6.40;99.90
6252;DHT22;3159;52.414;9.784;2023-12-20T05:44:24;6.40;99.90
6252;DHT22;3159;52.414;9.784;2023-12-20T05:46:51;6.40;99.90
6252;DHT22;3159;52.414;9.784;2023-12-20T05:49:20;6.40;99.90
6252;DHT22;3159;52.414;9.784;2023-12-20T05:51:47;6.40;99.90
6252;DHT22;3159;52.414;9.784;2023-12-20T05:54:14;6.40;99.90
6252;DHT22;3159;52.414;9.784;2023-12-20T05:56:40;6.40;99.90
6252;DHT22;3159;52.414;9.784;2023-12-20T05:59:07;6.40;99.90
6252;DHT22;3159;52.414;9.784;2023-12-20T06:01:34;6.50;99.90
6252;DHT22;3159;52.414;9.784;2023-12-20T06:04:01;6.40;99.90
6252;DHT22;3159;52.414;9.784;2023-12-20T06:06:30;6.40;99.90
6252;DHT22;3159;52.414;9.784;2023-12-20T06:08:57;6.40;99.90
6252;DHT22;3159;52.414;9.784;2023-12-20T06:11:24;6.50;99.90
6252;DHT22;3159;52.414;9.784;2023-12-20T06:13:50;6.50;99.90
6252;DHT22;3159;52.414;9.784;2023-12-20T06:16:19;6.50;99.90
6252;DHT22;3159;52.414;9.784;2023-12-20T06:18:45;6.50;99.90
6252;DHT22;3159;52.414;9.784;2023-12-20T06:21:12;6.50;99.90
6252;DHT22;3159;52.414;9.784;2023-12-20T06:23:41;6.50;99.90
6252;DHT22;3159;52.414;9.784;2023-12-20T06:26:08;6.40;99.90
6252;DHT22;3159;52.414;9.784;2023-12-20T06:28:34;6.40;99.90
6252;DHT22;3159;52.414;9.784;2023-12-20T06:31:01;6.50;99.90
6252;DHT22;3159;52.414;9.784;2023-12-20T06:33:28;6.60;99.90
6252;DHT22;3159;52.414;9.784;2023-12-20T06:35:56;6.50;99.90
6252;DHT22;3159;52.414;9.784;2023-12-20T06:38:23;6.40;99.90
6252;DHT22;3159;52.414;9.784;2023-12-20T06:40:51;6.50;99.90
6252;DHT22;3159;52.414;9.784;2023-12-20T06:43:18;6.60;99.90
6252;DHT22;3159;52.414;9.784;2023-12-20T06:45:45;6.50;99.90
6252;DHT22;3159;52.414;9.784;2023-12-20T06:48:12;6.40;99.90
6252;DHT22;3159;52.414;9.784;2023-12-20T06:50:39;6.40;99.90
6252;DHT22;3159;52.414;9.784;2023-12-20T06:53:06;6.40;99.90
6252;DHT22;3159;52.414;9.784;2023-12-20T06:55:33;6.40;99.90
6252;DHT22;3159;52.414;9.784;2023-12-20T06:58:02;6.40;99.90
6252;DHT22;3159;52.414;9.784;2023-12-20T07:00:29;6.50;99.90
6252;DHT22;3159;52.414;9.784;2023-12-20T07:02:55;6.50;99.90
6252;DHT22;3159;52.414;9.784;2023-12-20T07:05:22;6.50;99.90
6252;DHT22;3159;52.414;9.784;2023-12-20T07:07:49;6.50;99.90
6252;DHT22;3159;52.414;9.784;2023-12-20T07:10:16;6.50;99.90
6252;DHT22;3159;52.414;9.784;2023-12-20T07:12:43;6.40;99.90
6252;DHT22;3159;52.414;9.784;2023-12-20T07:15:11;6.40;99.90
6252;DHT22;3159;52.414;9.784;2023-12-20T07:17:38;6.40;99.90
6252;DHT22;3159;52.414;9.784;2023-12-20T07:20:06;6.30;99.90
6252;DHT22;3159;52.414;9.784;2023-12-20T07:22:36;6.30;99.90
6252;DHT22;3159;52.414;9.784;2023-12-20T07:25:03;6.30;99.90
6252;DHT22;3159;52.414;9.784;2023-12-20T07:27:30;6.30;99.90
6252;DHT22;3159;52.414;9.784;2023-12-20T07:29:57;6.30;99.90
6252;DHT22;3159;52.414;9.784;2023-12-20T07:32:25;6.30;99.90
6252;DHT22;3159;52.414;9.784;2023-12-20T07:34:52;6.40;99.90
6252;DHT22;3159;52.414;9.784;2023-12-20T07:37:19;6.40;99.90
6252;DHT22;3159;52.414;9.784;2023-12-20T07:39:46;6.40;99.90
6252;DHT22;3159;52.414;9.784;2023-12-20T07:42:13;6.40;99.90
6252;DHT22;3159;52.414;9.784;2023-12-20T07:44:40;6.40;99.90
6252;DHT22;3159;52.414;9.784;2023-12-20T07:47:07;6.30;99.90
6252;DHT22;3159;52.414;9.784;2023-12-20T07:49:35;6.30;99.90
6252;DHT22;3159;52.414;9.784;2023-12-20T07:52:01;6.30;99.90
6252;DHT22;3159;52.414;9.784;2023-12-20T07:54:28;6.40;99.90
6252;DHT22;3159;52.414;9.784;2023-12-20T07:56:56;6.40;99.90
6252;DHT22;3159;52.414;9.784;2023-12-20T07:59:23;6.40;99.90
6252;DHT22;3159;52.414;9.784;2023-12-20T08:01:50;6.40;99.90
6252;DHT22;3159;52.414;9.784;2023-12-20T08:04:16;6.40;99.90
6252;DHT22;3159;52.414;9.784;2023-12-20T08:06:45;6.40;99.90
6252;DHT22;3159;52.414;9.784;2023-12-20T08:09:11;6.40;99.90
6252;DHT22;3159;52.414;9.784;2023-12-20T08:11:38;6.40;99.90
6252;DHT22;3159;52.414;9.784;2023-12-20T08:14:05;6.30;99.90
6252;DHT22;3159;52.414;9.784;2023-12-20T08:16:32;6.40;99.90
6252;DHT22;3159;52.414;9.784;2023-12-20T08:18:58;6.40;99.90
6252;DHT22;3159;52.414;9.784;2023-12-20T08:21:25;6.40;99.90
6252;DHT22;3159;52.414;9.784;2023-12-20T08:23:53;6.40;99.90
6252;DHT22;3159;52.414;9.784;2023-12-20T08:26:20;6.50;99.90
6252;DHT22;3159;52.414;9.784;2023-12-20T08:28:48;6.40;99.90
6252;DHT22;3159;52.414;9.784;2023-12-20T08:31:15;6.50;99.90
6252;DHT22;3159;52.414;9.784;2023-12-20T08:33:43;6.50;99.90
6252;DHT22;3159;52.414;9.784;2023-12-20T08:36:10;6.50;99.90
6252;DHT22;3159;52.414;9.784;2023-12-20T08:38:37;6.50;99.90
6252;DHT22;3159;52.414;9.784;2023-12-20T08:41:06;6.60;99.90
6252;DHT22;3159;52.414;9.784;2023-12-20T08:43:34;6.60;99.90
6252;DHT22;3159;52.414;9.784;2023-12-20T08:46:01;6.60;99.90
6252;DHT22;3159;52.414;9.784;2023-12-20T08:48:28;6.70;99.90
6252;DHT22;3159;52.414;9.784;2023-12-20T08:50:55;6.70;99.90
6252;DHT22;3159;52.414;9.784;2023-12-20T08:53:22;6.70;99.90
6252;DHT22;3159;52.414;9.784;2023-12-20T08:55:48;6.60;99.90
6252;DHT22;3159;52.414;9.784;2023-12-20T08:58:17;6.70;99.90
6252;DHT22;3159;52.414;9.784;2023-12-20T09:00:44;6.70;99.90
6252;DHT22;3159;52.414;9.784;2023-12-20T09:03:11;6.70;99.90
6252;DHT22;3159;52.414;9.784;2023-12-20T09:05:38;6.70;99.90
6252;DHT22;3159;52.414;9.784;2023-12-20T09:08:04;6.80;99.90
6252;DHT22;3159;52.414;9.784;2023-12-20T09:10:33;6.80;99.90
6252;DHT22;3159;52.414;9.784;2023-12-20T09:13:00;6.90;99.90
6252;DHT22;3159;52.414;9.784;2023-12-20T09:15:28;6.90;99.90
6252;DHT22;3159;52.414;9.784;2023-12-20T09:17:55;6.80;99.90
6252;DHT22;3159;52.414;9.784;2023-12-20T09:20:22;6.80;99.90
6252;DHT22;3159;52.414;9.784;2023-12-20T09:22:49;6.90;99.90
6252;DHT22;3159;52.414;9.784;2023-12-20T09:25:16;6.90;99.90
6252;DHT22;3159;52.414;9.784;2023-12-20T09:27:43;7.00;99.90
6252;DHT22;3159;52.414;9.784;2023-12-20T09:30:10;6.80;99.90
6252;DHT22;3159;52.414;9.784;2023-12-20T09:32:38;6.90;99.90
6252;DHT22;3159;52.414;9.784;2023-12-20T09:35:06;6.90;99.90
6252;DHT22;3159;52.414;9.784;2023-12-20T09:37:34;6.90;99.90
6252;DHT22;3159;52.414;9.784;2023-12-20T09:40:01;6.90;99.90
6252;DHT22;3159;52.414;9.784;2023-12-20T09:42:33;6.90;99.90
6252;DHT22;3159;52.414;9.784;2023-12-20T09:45:02;7.00;99.90
6252;DHT22;3159;52.414;9.784;2023-12-20T09:47:30;7.00;99.90
6252;DHT22;3159;52.414;9.784;2023-12-20T09:49:58;7.00;99.90
6252;DHT22;3159;52.414;9.784;2023-12-20T09:52:25;7.10;99.90
6252;DHT22;3159;52.414;9.784;2023-12-20T09:54:53;7.00;99.90
6252;DHT22;3159;52.414;9.784;2023-12-20T09:57:20;7.00;99.90
6252;DHT22;3159;52.414;9.784;2023-12-20T09:59:47;7.00;99.90
6252;DHT22;3159;52.414;9.784;2023-12-20T10:02:14;7.00;99.90
6252;DHT22;3159;52.414;9.784;2023-12-20T10:04:46;7.00;99.90
6252;DHT22;3159;52.414;9.784;2023-12-20T10:07:15;7.10;99.90
6252;DHT22;3159;52.414;9.784;2023-12-20T10:09:42;7.10;99.90
6252;DHT22;3159;52.414;9.784;2023-12-20T10:12:10;7.20;99.90
6252;DHT22;3159;52.414;9.784;2023-12-20T10:14:38;7.10;99.90
6252;DHT22;3159;52.414;9.784;2023-12-20T10:17:06;7.10;99.90
6252;DHT22;3159;52.414;9.784;2023-12-20T10:19:34;7.10;99.90
6252;DHT22;3159;52.414;9.784;2023-12-20T10:22:00;7.10;99.90
6252;DHT22;3159;52.414;9.784;2023-12-20T10:24:30;7.10;99.90
6252;DHT22;3159;52.414;9.784;2023-12-20T10:27:03;7.20;99.90
6252;DHT22;3159;52.414;9.784;2023-12-20T10:29:33;7.20;99.90
6252;DHT22;3159;52.414;9.784;2023-12-20T10:32:21;7.30;99.90
6252;DHT22;3159;52.414;9.784;2023-12-20T10:34:49;7.20;99.90
6252;DHT22;3159;52.414;9.784;2023-12-20T10:37:16;7.20;99.90
6252;DHT22;3159;52.414;9.784;2023-12-20T10:39:49;7.20;99.90
6252;DHT22;3159;52.414;9.784;2023-12-20T10:42:17;7.20;99.90
6252;DHT22;3159;52.414;9.784;2023-12-20T10:44:44;7.20;99.90
6252;DHT22;3159;52.414;9.784;2023-12-20T10:47:11;7.20;99.90
6252;DHT22;3159;52.414;9.784;2023-12-20T10:49:40;7.30;99.90
6252;DHT22;3159;52.414;9.784;2023-12-20T10:52:09;7.20;99.90
6252;DHT22;3159;52.414;9.784;2023-12-20T10:54:38;7.20;99.90
6252;DHT22;3159;52.414;9.784;2023-12-20T10:57:06;7.30;99.90
6252;DHT22;3159;52.414;9.784;2023-12-20T10:59:33;7.20;99.90
6252;DHT22;3159;52.414;9.784;2023-12-20T11:02:03;7.20;99.90
6252;DHT22;3159;52.414;9.784;2023-12-20T11:04:36;7.20;99.90
6252;DHT22;3159;52.414;9.784;2023-12-20T11:07:13;7.20;99.90
6252;DHT22;3159;52.414;9.784;2023-12-20T11:09:46;7.20;99.90
6252;DHT22;3159;52.414;9.784;2023-12-20T11:12:20;7.20;99.90
6252;DHT22;3159;52.414;9.784;2023-12-20T11:14:51;7.20;99.90
6252;DHT22;3159;52.414;9.784;2023-12-20T11:17:19;7.10;99.90
6252;DHT22;3159;52.414;9.784;2023-12-20T11:20:08;7.10;99.90
6252;DHT22;3159;52.414;9.784;2023-12-20T11:22:37;7.10;99.90
6252;DHT22;3159;52.414;9.784;2023-12-20T11:25:08;7.10;99.90
6252;DHT22;3159;52.414;9.784;2023-12-20T11:27:40;7.00;99.90
6252;DHT22;3159;52.414;9.784;2023-12-20T11:30:08;7.10;99.90
6252;DHT22;3159;52.414;9.784;2023-12-20T11:32:36;7.00;99.90
6252;DHT22;3159;52.414;9.784;2023-12-20T11:35:17;7.00;99.90
6252;DHT22;3159;52.414;9.784;2023-12-20T11:37:45;7.00;99.90
6252;DHT22;3159;52.414;9.784;2023-12-20T11:40:15;7.00;99.90
6252;DHT22;3159;52.414;9.784;2023-12-20T11:42:44;6.90;99.90
6252;DHT22;3159;52.414;9.784;2023-12-20T11:45:13;6.90;99.90
6252;DHT22;3159;52.414;9.784;2023-12-20T11:47:42;6.90;99.90
6252;DHT22;3159;52.414;9.784;2023-12-20T11:50:09;7.00;99.90
6252;DHT22;3159;52.414;9.784;2023-12-20T11:52:36;6.90;99.90
6252;DHT22;3159;52.414;9.784;2023-12-20T11:55:04;6.80;99.90
6252;DHT22;3159;52.414;9.784;2023-12-20T11:57:32;6.80;99.90
6252;DHT22;3159;52.414;9.784;2023-12-20T12:00:00;6.80;99.90
6252;DHT22;3159;52.414;9.784;2023-12-20T12:02:27;6.70;99.90
6252;DHT22;3159;52.414;9.784;2023-12-20T12:04:54;6.60;99.90
6252;DHT22;3159;52.414;9.784;2023-12-20T12:07:22;6.60;99.90
6252;DHT22;3159;52.414;9.784;2023-12-20T12:09:48;6.70;99.90
6252;DHT22;3159;52.414;9.784;2023-12-20T12:12:16;6.70;99.90
6252;DHT22;3159;52.414;9.784;2023-12-20T12:14:44;6.70;99.90
6252;DHT22;3159;52.414;9.784;2023-12-20T12:17:13;6.70;99.90
6252;DHT22;3159;52.414;9.784;2023-12-20T12:19:40;6.70;99.90
6252;DHT22;3159;52.414;9.784;2023-12-20T12:22:08;6.50;99.90
6252;DHT22;3159;52.414;9.784;2023-12-20T12:24:38;6.50;99.90
6252;DHT22;3159;52.414;9.784;2023-12-20T12:27:08;6.50;99.90
6252;DHT22;3159;52.414;9.784;2023-12-20T12:29:36;6.50;99.90
6252;DHT22;3159;52.414;9.784;2023-12-20T12:32:05;6.40;99.90
6252;DHT22;3159;52.414;9.784;2023-12-20T12:34:34;6.40;99.90
6252;DHT22;3159;52.414;9.784;2023-12-20T12:37:03;6.40;99.90
6252;DHT22;3159;52.414;9.784;2023-12-20T12:39:30;6.50;99.90
6252;DHT22;3159;52.414;9.784;2023-12-20T12:41:57;6.40;99.90
6252;DHT22;3159;52.414;9.784;2023-12-20T12:44:24;6.40;99.90
6252;DHT22;3159;52.414;9.784;2023-12-20T12:46:51;6.50;99.90
6252;DHT22;3159;52.414;9.784;2023-12-20T12:49:19;6.50;99.90
6252;DHT22;3159;52.414;9.784;2023-12-20T12:51:48;6.50;99.90
6252;DHT22;3159;52.414;9.784;2023-12-20T12:54:15;6.50;99.90
6252;DHT22;3159;52.414;9.784;2023-12-20T12:56:43;6.50;99.90
6252;DHT22;3159;52.414;9.784;2023-12-20T12:59:10;6.60;99.90
6252;DHT22;3159;52.414;9.784;2023-12-20T13:01:37;6.70;99.90
6252;DHT22;3159;52.414;9.784;2023-12-20T13:04:04;6.60;99.90
6252;DHT22;3159;52.414;9.784;2023-12-20T13:06:36;6.50;99.90
6252;DHT22;3159;52.414;9.784;2023-12-20T13:09:04;6.50;99.90
6252;DHT22;3159;52.414;9.784;2023-12-20T13:11:31;6.30;99.90
6252;DHT22;3159;52.414;9.784;2023-12-20T13:13:58;6.40;99.90
6252;DHT22;3159;52.414;9.784;2023-12-20T13:16:25;6.30;99.90
6252;DHT22;3159;52.414;9.784;2023-12-20T13:18:51;6.40;99.90
6252;DHT22;3159;52.414;9.784;2023-12-20T13:21:18;6.30;99.90
6252;DHT22;3159;52.414;9.784;2023-12-20T13:23:45;6.30;99.90
6252;DHT22;3159;52.414;9.784;2023-12-20T13:26:13;6.30;99.90
6252;DHT22;3159;52.414;9.784;2023-12-20T13:28:40;6.30;99.90
6252;DHT22;3159;52.414;9.784;2023-12-20T13:31:07;6.30;99.90
6252;DHT22;3159;52.414;9.784;2023-12-20T13:33:35;6.30;99.90
6252;DHT22;3159;52.414;9.784;2023-12-20T13:36:02;6.30;99.90
6252;DHT22;3159;52.414;9.784;2023-12-20T13:38:29;6.40;99.90
6252;DHT22;3159;52.414;9.784;2023-12-20T13:40:56;6.30;99.90
6252;DHT22;3159;52.414;9.784;2023-12-20T13:43:25;6.40;99.90
6252;DHT22;3159;52.414;9.784;2023-12-20T13:45:52;6.40;99.90
6252;DHT22;3159;52.414;9.784;2023-12-20T13:48:18;6.30;99.90
6252;DHT22;3159;52.414;9.784;2023-12-20T13:50:45;6.30;99.90
6252;DHT22;3159;52.414;9.784;2023-12-20T13:53:12;6.30;99.90
6252;DHT22;3159;52.414;9.784;2023-12-20T13:55:39;6.30;99.90
6252;DHT22;3159;52.414;9.784;2023-12-20T13:58:06;6.40;99.90
6252;DHT22;3159;52.414;9.784;2023-12-20T14:00:35;6.40;99.90
6252;DHT22;3159;52.414;9.784;2023-12-20T14:03:03;6.50;99.90
6252;DHT22;3159;52.414;9.784;2023-12-20T14:05:31;6.40;99.90
6252;DHT22;3159;52.414;9.784;2023-12-20T14:07:58;6.50;99.90
6252;DHT22;3159;52.414;9.784;2023-12-20T14:10:26;6.40;99.90
6252;DHT22;3159;52.414;9.784;2023-12-20T14:12:53;6.40;99.90
6252;DHT22;3159;52.414;9.784;2023-12-20T14:15:20;6.50;99.90
6252;DHT22;3159;52.414;9.784;2023-12-20T14:17:48;6.50;99.90
6252;DHT22;3159;52.414;9.784;2023-12-20T14:20:15;6.50;99.90
6252;DHT22;3159;52.414;9.784;2023-12-20T14:22:41;6.50;99.90
6252;DHT22;3159;52.414;9.784;2023-12-20T14:25:11;6.50;99.90
6252;DHT22;3159;52.414;9.784;2023-12-20T14:27:38;6.60;99.90
6252;DHT22;3159;52.414;9.784;2023-12-20T14:30:06;6.60;99.90
6252;DHT22;3159;52.414;9.784;2023-12-20T14:32:35;6.60;99.90
6252;DHT22;3159;52.414;9.784;2023-12-20T14:35:05;6.60;99.90
6252;DHT22;3159;52.414;9.784;2023-12-20T14:37:33;6.60;99.90
6252;DHT22;3159;52.414;9.784;2023-12-20T14:40:00;6.60;99.90
6252;DHT22;3159;52.414;9.784;2023-12-20T14:42:28;6.60;99.90
6252;DHT22;3159;52.414;9.784;2023-12-20T14:44:55;6.60;99.90
6252;DHT22;3159;52.414;9.784;2023-12-20T14:47:21;6.70;99.90
6252;DHT22;3159;52.414;9.784;2023-12-20T14:49:48;6.60;99.90
6252;DHT22;3159;52.414;9.784;2023-12-20T14:52:17;6.70;99.90
6252;DHT22;3159;52.414;9.784;2023-12-20T14:54:44;6.60;99.90
6252;DHT22;3159;52.414;9.784;2023-12-20T14:57:11;6.60;99.90
6252;DHT22;3159;52.414;9.784;2023-12-20T14:59:38;6.60;99.90
6252;DHT22;3159;52.414;9.784;2023-12-20T15:02:04;6.60;99.90
6252;DHT22;3159;52.414;9.784;2023-12-20T15:04:31;6.70;99.90
6252;DHT22;3159;52.414;9.784;2023-12-20T15:06:58;6.60;99.90
6252;DHT22;3159;52.414;9.784;2023-12-20T15:09:27;6.60;99.90
6252;DHT22;3159;52.414;9.784;2023-12-20T15:11:55;6.60;99.90
6252;DHT22;3159;52.414;9.784;2023-12-20T15:14:21;6.60;99.90
6252;DHT22;3159;52.414;9.784;2023-12-20T15:16:48;6.60;99.90
6252;DHT22;3159;52.414;9.784;2023-12-20T15:19:15;6.50;99.90
6252;DHT22;3159;52.414;9.784;2023-12-20T15:21:42;6.50;99.90
6252;DHT22;3159;52.414;9.784;2023-12-20T15:24:09;6.50;99.90
6252;DHT22;3159;52.414;9.784;2023-12-20T15:26:42;6.60;99.90
6252;DHT22;3159;52.414;9.784;2023-12-20T15:29:09;6.50;99.90
6252;DHT22;3159;52.414;9.784;2023-12-20T15:31:42;6.60;99.90
6252;DHT22;3159;52.414;9.784;2023-12-20T15:34:08;6.50;99.90
6252;DHT22;3159;52.414;9.784;2023-12-20T15:36:36;6.60;99.90
6252;DHT22;3159;52.414;9.784;2023-12-20T15:39:03;6.60;99.90
6252;DHT22;3159;52.414;9.784;2023-12-20T15:41:30;6.50;99.90
6252;DHT22;3159;52.414;9.784;2023-12-20T15:43:58;6.50;99.90
6252;DHT22;3159;52.414;9.784;2023-12-20T15:46:25;6.50;99.90
6252;DHT22;3159;52.414;9.784;2023-12-20T15:48:51;6.50;99.90
6252;DHT22;3159;52.414;9.784;2023-12-20T15:51:20;6.50;99.90
6252;DHT22;3159;52.414;9.784;2023-12-20T15:53:47;6.50;99.90
6252;DHT22;3159;52.414;9.784;2023-12-20T15:56:15;6.50;99.90
6252;DHT22;3159;52.414;9.784;2023-12-20T15:58:42;6.50;99.90
6252;DHT22;3159;52.414;9.784;2023-12-20T16:01:10;6.40;99.90
6252;DHT22;3159;52.414;9.784;2023-12-20T16:03:37;6.40;99.90
6252;DHT22;3159;52.414;9.784;2023-12-20T16:06:04;6.40;99.90
6252;DHT22;3159;52.414;9.784;2023-12-20T16:08:31;6.30;99.90
6252;DHT22;3159;52.414;9.784;2023-12-20T16:10:58;6.20;99.90
6252;DHT22;3159;52.414;9.784;2023-12-20T16:13:25;6.30;99.90
6252;DHT22;3159;52.414;9.784;2023-12-20T16:15:52;6.30;99.90
6252;DHT22;3159;52.414;9.784;2023-12-20T16:18:21;6.40;99.90